Time;durP1;ratioP1;P1;durP2;ratioP2;P2;SDS_P1;SDS_P2;PMS_P1;PMS_P2;Temp;Humidity;BMP_temperature;BMP_pressure;BME280_temperature;BME280_humidity;BME280_pressure;Samples;Min_cycle;Max_cycle;Signal;HPM_P1;HPM_P2
2021/04/04 00:00:14;;;;;;;6.43;4.28;;;;;;;-0.06;100.00;100733.50;2571086;55;20114;-71
2021/04/04 00:02:45;;;;;;;5.60;3.92;;;;;;;-0.07;100.00;100731.78;2571917;55;20684;-71
2021/04/04 00:05:15;;;;;;;4.32;3.25;;;;;;;-0.04;100.00;100733.44;2570712;55;20121;-72
2021/04/04 00:07:44;;;;;;;5.70;3.28;;;;;;;-0.03;100.00;100729.91;2571955;55;20131;-71
2021/04/04 00:10:14;;;;;;;5.20;3.60;;;;;;;-0.08;100.00;100718.72;2571963;55;20098;-71
2021/04/04 00:12:43;;;;;;;6.70;3.50;;;;;;;-0.04;100.00;100723.84;2571004;55;20121;-71
2021/04/04 00:15:15;;;;;;;6.72;3.80;;;;;;;-0.15;100.00;100715.41;2571661;55;20132;-72
2021/04/04 00:17:45;;;;;;;5.15;3.53;;;;;;;-0.06;100.00;100732.66;2572214;55;20117;-73
2021/04/04 00:20:16;;;;;;;4.47;3.15;;;;;;;-0.08;100.00;100729.22;2570683;55;20501;-72
2021/04/04 00:22:48;;;;;;;6.50;3.23;;;;;;;-0.09;100.00;100715.22;2571825;55;20125;-72
2021/04/04 00:25:17;;;;;;;5.87;3.58;;;;;;;-0.11;100.00;100719.69;2571032;55;20102;-73
2021/04/04 00:27:45;;;;;;;6.40;3.92;;;;;;;-0.12;100.00;100719.72;2570614;55;20114;-72
2021/04/04 00:30:17;;;;;;;4.57;3.62;;;;;;;-0.15;100.00;100713.66;2571200;55;20528;-71
2021/04/04 00:32:46;;;;;;;5.60;3.47;;;;;;;-0.19;100.00;100709.44;2571873;55;20135;-71
2021/04/04 00:35:16;;;;;;;4.40;2.90;;;;;;;-0.29;100.00;100713.22;2571171;55;20125;-71
2021/04/04 00:37:44;;;;;;;5.35;3.47;;;;;;;-0.36;100.00;100711.69;2571799;55;20136;-71
2021/04/04 00:40:16;;;;;;;;;;;;;;;-0.21;100.00;100707.75;2571456;55;20131;-71
2021/04/04 00:42:45;;;;;;;5.65;3.67;;;;;;;-0.45;100.00;100697.06;2570523;55;20023;-73
2021/04/04 00:45:16;;;;;;;5.43;3.50;;;;;;;-0.53;100.00;100710.41;2571861;55;20129;-72
2021/04/04 00:47:50;;;;;;;5.60;3.50;;;;;;;-0.65;100.00;100711.63;2571223;55;20140;-71
2021/04/04 00:50:21;;;;;;;6.30;3.83;;;;;;;-0.69;100.00;100722.25;2571275;55;20113;-71
2021/04/04 00:52:50;;;;;;;6.53;4.22;;;;;;;-0.77;100.00;100717.19;2572090;55;20163;-71
2021/04/04 00:55:19;;;;;;;8.65;4.05;;;;;;;-0.84;100.00;100716.53;2571608;55;20135;-71
2021/04/04 00:57:47;;;;;;;6.00;3.90;;;;;;;-0.89;100.00;100718.44;2571450;55;20528;-71
2021/04/04 01:00:21;;;;;;;5.22;3.58;;;;;;;-0.91;100.00;100725.44;2570982;55;20122;-71
2021/04/04 01:02:50;;;;;;;7.65;3.97;;;;;;;-0.98;100.00;100719.50;2571220;55;20113;-71
2021/04/04 01:05:25;;;;;;;4.72;3.65;;;;;;;-0.99;100.00;100717.78;2571467;55;20623;-70
2021/04/04 01:07:57;;;;;;;5.95;3.83;;;;;;;-1.07;100.00;100715.37;2572059;55;20679;-72
2021/04/04 01:10:28;;;;;;;6.53;4.40;;;;;;;-1.08;100.00;100718.91;2570670;55;20117;-71
2021/04/04 01:13:06;;;;;;;7.03;4.85;;;;;;;-1.10;100.00;100718.09;2571748;55;20234;-71
2021/04/04 01:15:38;;;;;;;6.85;4.20;;;;;;;-1.22;100.00;100715.78;2571583;55;20627;-71
2021/04/04 01:18:08;;;;;;;;;;;;;;;-1.00;100.00;100727.44;2572058;55;20139;-70
2021/04/04 01:20:44;;;;;;;5.72;3.75;;;;;;;-1.29;100.00;100718.59;2570551;55;20023;-71
2021/04/04 01:23:57;;;;;;;5.12;3.80;;;;;;;-1.31;100.00;100722.97;2571907;55;20516;-71
2021/04/04 01:26:35;;;;;;;4.45;3.25;;;;;;;-1.45;100.00;100714.63;2571509;55;20121;-71
2021/04/04 01:29:06;;;;;;;4.25;3.60;;;;;;;-1.59;100.00;100722.81;2571805;55;20132;-71
2021/04/04 01:31:35;;;;;;;11.27;3.85;;;;;;;-1.63;100.00;100726.41;2570754;55;20604;-71
2021/04/04 01:34:06;;;;;;;8.25;3.85;;;;;;;-1.69;100.00;100730.03;2571493;55;20651;-71
2021/04/04 01:36:39;;;;;;;6.68;3.78;;;;;;;-1.77;100.00;100729.34;2568197;55;20678;-71
2021/04/04 01:39:10;;;;;;;5.53;4.32;;;;;;;-1.82;100.00;100732.91;2572257;55;20512;-71
2021/04/04 01:41:41;;;;;;;5.45;3.53;;;;;;;-1.86;100.00;100733.91;2571469;55;20118;-71
2021/04/04 01:44:14;;;;;;;7.60;4.40;;;;;;;-1.91;100.00;100727.91;2572585;55;20116;-71
2021/04/04 01:46:46;;;;;;;7.68;4.20;;;;;;;-1.92;100.00;100730.56;2572168;55;20117;-71
2021/04/04 01:49:15;;;;;;;7.40;3.90;;;;;;;-2.03;100.00;100725.56;2571471;55;20109;-71
2021/04/04 01:51:46;;;;;;;7.15;4.22;;;;;;;-2.06;100.00;100723.03;2571476;55;20113;-71
2021/04/04 01:54:16;;;;;;;7.37;4.18;;;;;;;-2.15;100.00;100724.13;2572304;55;20127;-71
2021/04/04 01:56:44;;;;;;;6.07;4.00;;;;;;;-2.20;100.00;100734.66;2572141;55;20816;-71
2021/04/04 01:59:15;;;;;;;7.60;3.80;;;;;;;-2.24;100.00;100730.38;2572357;55;20114;-72
2021/04/04 02:01:46;;;;;;;5.20;3.92;;;;;;;-2.27;100.00;100731.31;2572373;55;20645;-71
2021/04/04 02:04:17;;;;;;;5.50;4.07;;;;;;;-2.28;100.00;100726.97;2572468;55;20140;-71
2021/04/04 02:06:46;;;;;;;6.93;4.25;;;;;;;-2.30;100.00;100725.31;2571619;55;20125;-71
2021/04/04 02:09:18;;;;;;;6.35;5.03;;;;;;;-2.33;100.00;100738.41;2572032;55;20109;-71
2021/04/04 02:11:52;;;;;;;7.75;4.45;;;;;;;-2.43;100.00;100730.78;2571313;55;20114;-71
2021/04/04 02:14:24;;;;;;;6.85;4.55;;;;;;;-2.46;100.00;100736.06;2571506;55;20132;-71
2021/04/04 02:16:56;;;;;;;8.70;4.80;;;;;;;-2.52;100.00;100742.28;2572539;55;20121;-71
2021/04/04 02:19:26;;;;;;;7.70;4.50;;;;;;;-2.53;100.00;100737.06;2571931;55;20131;-71
2021/04/04 02:21:57;;;;;;;6.82;4.18;;;;;;;-2.62;100.00;100734.66;2572069;55;20534;-71
2021/04/04 02:24:27;;;;;;;;;;;;;;;-2.38;100.00;100734.16;2571965;55;20527;-70
2021/04/04 02:26:56;;;;;;;6.37;4.50;;;;;;;-2.62;100.00;100729.44;2572092;55;20005;-71
2021/04/04 02:29:28;;;;;;;6.07;4.45;;;;;;;-2.67;100.00;100727.78;2571530;55;20114;-71
2021/04/04 02:31:59;;;;;;;9.70;5.43;;;;;;;-2.72;100.00;100728.75;2572450;55;20615;-72
2021/04/04 02:34:35;;;;;;;8.55;4.82;;;;;;;-2.75;100.00;100724.44;2571201;55;20113;-71
2021/04/04 02:37:05;;;;;;;11.05;5.85;;;;;;;-2.77;100.00;100721.00;2571480;55;20140;-71
2021/04/04 02:39:39;;;;;;;9.48;6.62;;;;;;;-2.80;100.00;100715.88;2571399;55;20513;-72
2021/04/04 02:42:11;;;;;;;9.20;5.07;;;;;;;-2.86;100.00;100713.34;2571912;55;20647;-70
2021/04/04 02:44:45;;;;;;;9.65;5.68;;;;;;;-2.93;100.00;100696.97;2571793;55;20128;-71
2021/04/04 02:47:15;;;;;;;9.80;6.55;;;;;;;-2.97;100.00;100708.31;2572458;55;20143;-71
2021/04/04 02:49:50;;;;;;;8.98;5.50;;;;;;;-3.02;100.00;100707.56;2571225;55;20127;-71
2021/04/04 02:52:21;;;;;;;7.15;5.07;;;;;;;-3.03;100.00;100709.31;2572260;55;20111;-72
2021/04/04 02:54:53;;;;;;;8.27;5.40;;;;;;;-3.05;100.00;100705.03;2571431;55;20132;-71
2021/04/04 02:57:28;;;;;;;7.78;5.55;;;;;;;-3.12;100.00;100714.69;2572337;55;20228;-71
2021/04/04 03:00:02;;;;;;;7.53;5.47;;;;;;;-3.15;100.00;100704.31;2572242;55;20118;-71
2021/04/04 03:02:31;;;;;;;8.73;5.65;;;;;;;-3.19;100.00;100713.94;2571166;55;20129;-70
2021/04/04 03:05:02;;;;;;;10.20;5.75;;;;;;;-3.22;100.00;100709.66;2571722;55;20113;-71
2021/04/04 03:07:31;;;;;;;9.77;5.53;;;;;;;-3.24;100.00;100710.59;2571990;55;20120;-72
2021/04/04 03:10:02;;;;;;;8.25;5.65;;;;;;;-3.30;100.00;100695.91;2571851;55;20527;-71
2021/04/04 03:12:34;;;;;;;8.38;5.07;;;;;;;-3.31;100.00;100694.16;2571806;55;20128;-71
2021/04/04 03:15:12;;;;;;;8.40;5.87;;;;;;;-3.22;100.00;100699.19;2572229;55;20125;-72
2021/04/04 03:17:42;;;;;;;8.80;5.87;;;;;;;-3.22;100.00;100693.97;2571484;55;20711;-70
2021/04/04 03:20:15;;;;;;;8.52;5.95;;;;;;;-3.12;100.00;100699.03;2572212;55;20136;-71
2021/04/04 03:22:47;;;;;;;9.48;6.47;;;;;;;-3.07;100.00;100690.22;2571693;55;20110;-70
2021/04/04 03:25:18;;;;;;;8.50;6.78;;;;;;;-3.00;100.00;100685.78;2572014;55;20114;-71
2021/04/04 03:27:48;;;;;;;13.68;7.12;;;;;;;-2.94;100.00;100687.41;2571584;55;20518;-71
2021/04/04 03:30:43;;;;;;;12.50;7.63;;;;;;;-2.87;100.00;100693.34;2572351;55;20118;-71
2021/04/04 03:33:15;;;;;;;10.93;7.70;;;;;;;-2.83;100.00;100687.16;2571270;55;20121;-70
2021/04/04 03:35:48;;;;;;;14.60;6.62;;;;;;;-2.76;100.00;100690.53;2572333;55;20148;-72
2021/04/04 03:38:20;;;;;;;9.52;7.25;;;;;;;-2.79;100.00;100683.63;2572211;55;20133;-71
2021/04/04 03:40:48;;;;;;;15.90;8.50;;;;;;;-2.75;100.00;100687.03;2571773;55;20512;-71
2021/04/04 03:43:23;;;;;;;12.65;6.75;;;;;;;-2.75;100.00;100674.81;2571385;55;20567;-70
2021/04/04 03:45:58;;;;;;;10.68;7.87;;;;;;;-2.59;100.00;100682.34;2571353;55;20133;-71
2021/04/04 03:48:28;;;;;;;12.37;7.57;;;;;;;-2.54;100.00;100680.50;2572041;55;20635;-71
2021/04/04 03:51:02;;;;;;;15.00;8.07;;;;;;;-2.36;100.00;100670.53;2572193;55;20170;-71
2021/04/04 03:53:31;;;;;;;13.07;7.93;;;;;;;-2.19;100.00;100676.25;2572083;55;20114;-70
2021/04/04 03:56:02;;;;;;;17.48;8.57;;;;;;;-2.02;100.00;100681.09;2571973;55;20109;-71
2021/04/04 03:58:34;;;;;;;13.05;8.77;;;;;;;-1.87;100.00;100681.63;2572092;55;20113;-70
2021/04/04 04:01:12;;;;;;;13.80;8.73;;;;;;;-1.73;100.00;100673.44;2572051;55;20118;-71
2021/04/04 04:03:40;;;;;;;12.10;8.13;;;;;;;-1.64;100.00;100667.97;2571870;55;20126;-71
2021/04/04 04:06:10;;;;;;;11.50;8.15;;;;;;;-1.52;100.00;100671.19;2571903;55;20514;-71
2021/04/04 04:08:39;;;;;;;11.77;7.72;;;;;;;-1.40;100.00;100665.66;2571208;55;20167;-72
2021/04/04 04:11:12;;;;;;;11.23;8.65;;;;;;;-1.30;100.00;100659.25;2570950;55;20122;-71
2021/04/04 04:13:43;;;;;;;10.02;7.90;;;;;;;-1.04;100.00;100665.53;2571715;55;20234;-72
2021/04/04 04:16:15;;;;;;;10.95;8.02;;;;;;;-0.80;100.00;100672.75;2572012;55;20105;-72
2021/04/04 04:18:45;;;;;;;10.32;6.45;;;;;;;-0.61;100.00;100665.22;2571795;55;20136;-71
2021/04/04 04:21:17;;;;;;;10.73;6.87;;;;;;;-0.37;100.00;100668.88;2572125;55;20109;-72
2021/04/04 04:23:47;;;;;;;11.45;6.55;;;;;;;-0.15;100.00;100663.81;2571000;55;20117;-71
2021/04/04 04:26:17;;;;;;;9.65;5.68;;;;;;;0.06;100.00;100661.41;2571818;55;20102;-71
2021/04/04 04:28:49;;;;;;;8.15;5.40;;;;;;;0.22;100.00;100658.31;2571108;55;20121;-71
2021/04/04 04:31:21;;;;;;;7.93;6.18;;;;;;;0.31;100.00;100655.38;2570898;55;20117;-72
2021/04/04 04:33:54;;;;;;;8.70;5.93;;;;;;;0.46;100.00;100663.66;2571636;55;20567;-72
2021/04/04 04:36:24;;;;;;;6.40;4.18;;;;;;;0.54;100.00;100666.88;2571215;55;20114;-72
2021/04/04 04:38:57;;;;;;;6.50;4.75;;;;;;;0.53;100.00;100659.91;2570960;55;20557;-72
2021/04/04 04:41:28;;;;;;;4.55;4.05;;;;;;;0.33;99.44;100647.44;2571108;55;20121;-72
2021/04/04 04:44:01;;;;;;;6.12;4.25;;;;;;;0.23;100.00;100652.16;2571752;55;20136;-72
2021/04/04 04:46:35;;;;;;;6.32;5.10;;;;;;;0.17;100.00;100640.09;2571614;55;20109;-72
2021/04/04 04:49:02;;;;;;;8.18;5.07;;;;;;;0.02;98.86;100643.22;2571981;55;20118;-72
2021/04/04 04:51:32;;;;;;;7.15;4.50;;;;;;;-0.12;100.00;100652.38;2571859;55;20120;-71
2021/04/04 04:54:00;;;;;;;5.65;4.25;;;;;;;-0.13;100.00;100649.81;2571559;55;20148;-72
2021/04/04 04:56:30;;;;;;;6.62;4.22;;;;;;;-0.18;100.00;100652.56;2571871;55;20110;-72
2021/04/04 04:59:02;;;;;;;4.82;3.80;;;;;;;-0.24;100.00;100643.13;2570860;55;20117;-72
2021/04/04 05:01:35;;;;;;;8.27;4.20;;;;;;;-0.29;100.00;100639.81;2571753;55;20131;-73
2021/04/04 05:04:04;;;;;;;7.93;4.15;;;;;;;-0.29;100.00;100645.91;2572023;55;20126;-73
2021/04/04 05:06:32;;;;;;;5.80;3.65;;;;;;;-0.34;100.00;100644.31;2571093;55;20118;-73
2021/04/04 05:09:02;;;;;;;5.65;4.20;;;;;;;-0.33;100.00;100638.16;2571482;55;20121;-73
2021/04/04 05:11:34;;;;;;;6.65;3.70;;;;;;;-0.31;100.00;100636.34;2571097;55;20130;-71
2021/04/04 05:14:05;;;;;;;7.32;4.12;;;;;;;-0.30;100.00;100645.94;2571533;55;20132;-72
2021/04/04 05:16:36;;;;;;;4.75;3.20;;;;;;;-0.29;99.88;100639.81;2572338;55;20114;-72
2021/04/04 05:19:08;;;;;;;4.82;3.33;;;;;;;-0.26;99.92;100639.69;2571606;55;20616;-72
2021/04/04 05:21:37;;;;;;;5.45;3.67;;;;;;;-0.23;100.00;100644.84;2571917;55;20118;-72
2021/04/04 05:24:08;;;;;;;5.43;3.65;;;;;;;-0.20;100.00;100642.16;2571994;55;20627;-72
2021/04/04 05:26:37;;;;;;;;;;;;;;;0.02;100.00;100649.31;2572073;55;20125;-72
2021/04/04 05:29:08;;;;;;;5.37;3.25;;;;;;;-0.03;99.52;100648.59;2572493;55;20133;-72
2021/04/04 05:31:48;;;;;;;6.47;3.70;;;;;;;0.12;100.00;100660.37;2571255;55;20199;-72
2021/04/04 05:34:21;;;;;;;6.20;3.55;;;;;;;0.22;99.81;100650.44;2572438;55;20139;-72
2021/04/04 05:36:52;;;;;;;5.65;3.80;;;;;;;0.50;98.18;100657.37;2572773;55;20531;-72
2021/04/04 05:39:22;;;;;;;;;;;;;;;0.82;98.33;100637.03;2571720;55;20138;-73
2021/04/04 05:41:53;;;;;;;6.30;3.47;;;;;;;1.08;94.30;100635.22;2572762;55;20442;-72
2021/04/04 05:44:27;;;;;;;6.50;2.50;;;;;;;1.30;92.10;100637.03;2572519;55;20654;-72
2021/04/04 05:47:04;;;;;;;4.80;2.72;;;;;;;1.51;92.16;100640.63;2572261;55;20132;-72
2021/04/04 05:49:40;;;;;;;7.93;3.97;;;;;;;1.59;91.18;100627.16;2572668;55;20117;-72
2021/04/04 05:52:28;;;;;;;4.87;2.50;;;;;;;1.79;88.90;100616.72;2572442;55;20123;-72
2021/04/04 05:55:23;;;;;;;8.82;1.92;;;;;;;2.01;89.67;100618.50;2572488;55;20114;-71
2021/04/04 05:57:56;;;;;;;4.50;2.20;;;;;;;2.12;86.73;100628.56;2571886;55;20117;-72
2021/04/04 06:00:28;;;;;;;4.22;1.70;;;;;;;2.30;86.30;100636.63;2572224;55;20109;-72
2021/04/04 06:03:40;;;;;;;5.25;1.62;;;;;;;2.49;85.54;100618.25;2571705;55;20475;-72
2021/04/04 06:06:46;;;;;;;6.28;2.03;;;;;;;2.59;84.47;100618.75;2572389;55;20117;-73
2021/04/04 06:09:42;;;;;;;5.47;2.28;;;;;;;2.72;83.43;100616.44;2572212;55;20125;-72
2021/04/04 06:12:19;;;;;;;6.40;1.90;;;;;;;2.80;81.89;100614.28;2572457;55;20685;-72
2021/04/04 06:15:12;;;;;;;4.35;2.60;;;;;;;2.99;81.72;100618.75;2571828;55;20492;-72
2021/04/04 06:17:47;;;;;;;6.62;2.03;;;;;;;3.01;81.05;100609.00;2572376;55;20135;-72
2021/04/04 06:20:31;;;;;;;5.18;2.05;;;;;;;3.16;81.23;100613.56;2572579;55;20132;-72
2021/04/04 06:23:13;;;;;;;5.10;1.90;;;;;;;3.32;80.18;100605.78;2571978;55;20128;-73
2021/04/04 06:25:58;;;;;;;3.42;1.80;;;;;;;3.47;79.75;100595.47;2572174;55;20608;-72
2021/04/04 06:28:41;;;;;;;7.55;1.95;;;;;;;3.43;78.67;100585.97;2572458;55;20512;-72
2021/04/04 06:31:19;;;;;;;7.20;2.12;;;;;;;3.49;78.83;100601.53;2572127;55;20133;-72
2021/04/04 06:34:02;;;;;;;3.95;1.92;;;;;;;3.40;74.91;100592.25;2571467;55;20117;-72
2021/04/04 06:36:38;;;;;;;2.72;1.75;;;;;;;3.36;77.12;100584.53;2571520;55;20121;-72
2021/04/04 06:39:09;;;;;;;9.13;3.33;;;;;;;3.31;77.53;100587.44;2572131;55;20633;-72
2021/04/04 06:41:53;;;;;;;4.82;1.92;;;;;;;3.38;77.37;100585.34;2572470;55;20131;-72
2021/04/04 06:44:39;;;;;;;5.43;2.35;;;;;;;3.34;74.49;100595.19;2572078;55;20133;-71
2021/04/04 06:47:16;;;;;;;2.90;1.90;;;;;;;3.23;74.85;100595.66;2571793;55;20498;-72
2021/04/04 06:50:03;;;;;;;3.67;2.00;;;;;;;3.36;75.41;100574.00;2569825;55;20167;-71
2021/04/04 06:52:45;;;;;;;12.00;4.75;;;;;;;3.46;75.66;100581.41;2566872;55;20117;-72
2021/04/04 06:55:23;;;;;;;3.22;1.55;;;;;;;3.55;72.81;100574.81;2570467;55;20143;-72
2021/04/04 06:58:13;;;;;;;3.75;1.40;;;;;;;3.70;73.58;100572.41;2571396;55;20117;-72
2021/04/04 07:00:50;;;;;;;3.12;1.20;;;;;;;3.61;71.96;100566.63;2570277;55;20136;-72
2021/04/04 07:03:21;;;;;;;5.37;1.40;;;;;;;3.62;71.76;100565.69;2571359;55;20117;-72
2021/04/04 07:05:57;;;;;;;4.57;1.75;;;;;;;3.60;71.72;100562.28;2571082;55;20128;-72
2021/04/04 07:09:05;;;;;;;4.37;2.97;;;;;;;3.80;73.16;100562.22;2571557;55;20113;-72
2021/04/04 07:11:42;;;;;;;4.03;1.60;;;;;;;3.71;71.29;100559.13;2570864;55;20626;-72
2021/04/04 07:14:37;;;;;;;4.45;1.30;;;;;;;3.79;70.05;100550.84;2569949;55;20369;-72
2021/04/04 07:17:16;;;;;;;2.50;1.27;;;;;;;3.76;68.57;100543.91;2571068;55;20685;-72
2021/04/04 07:20:24;;;;;;;3.10;1.30;;;;;;;3.89;69.21;100556.50;2571688;55;20534;-73
2021/04/04 07:23:44;;;;;;;6.20;1.20;;;;;;;3.87;68.00;100553.09;2564623;55;20165;-72
2021/04/04 07:26:40;;;;;;;2.50;1.15;;;;;;;3.70;67.27;100552.13;2570269;55;20120;-72
2021/04/04 07:29:33;;;;;;;2.33;1.17;;;;;;;3.54;67.07;100551.19;2569535;55;20128;-72
2021/04/04 07:32:08;;;;;;;4.55;1.15;;;;;;;3.41;67.23;100533.31;2570447;55;20122;-71
2021/04/04 07:34:44;;;;;;;2.78;1.05;;;;;;;3.53;68.09;100544.19;2569886;55;20125;-72
2021/04/04 07:37:38;;;;;;;6.72;1.30;;;;;;;3.56;67.43;100547.53;2570544;55;20114;-72
2021/04/04 07:40:11;;;;;;;9.07;2.80;;;;;;;3.61;68.30;100544.69;2570872;55;20611;-71
2021/04/04 07:42:48;;;;;;;2.17;1.20;;;;;;;3.67;66.25;100541.72;2571032;55;20128;-72
2021/04/04 07:45:22;;;;;;;2.05;1.12;;;;;;;3.67;64.60;100540.88;2570599;55;20624;-72
2021/04/04 07:47:59;;;;;;;4.93;1.17;;;;;;;3.69;65.27;100529.31;2571997;55;20547;-72
2021/04/04 07:50:33;;;;;;;4.57;1.40;;;;;;;3.66;65.85;100545.28;2571783;55;20527;-72
2021/04/04 07:53:16;;;;;;;2.92;1.45;;;;;;;3.64;65.88;100541.87;2570721;55;20116;-71
2021/04/04 07:55:51;;;;;;;2.33;1.42;;;;;;;3.53;66.08;100523.09;2571505;55;20130;-71
2021/04/04 07:58:26;;;;;;;2.47;1.17;;;;;;;3.58;68.12;100518.44;2571396;55;20128;-71
2021/04/04 08:01:01;;;;;;;2.70;1.10;;;;;;;3.58;66.82;100521.06;2571635;55;20136;-72
2021/04/04 08:03:37;;;;;;;3.60;1.05;;;;;;;3.64;67.95;100519.91;2571560;55;20631;-71
2021/04/04 08:06:12;;;;;;;2.92;1.10;;;;;;;3.55;69.00;100510.69;2571418;55;20133;-71
2021/04/04 08:08:44;;;;;;;4.80;1.23;;;;;;;3.56;68.91;100512.38;2570864;55;20627;-71
2021/04/04 08:11:26;;;;;;;3.00;1.08;;;;;;;3.57;70.90;100514.94;2571044;55;20170;-71
2021/04/04 08:14:04;;;;;;;3.15;1.40;;;;;;;3.40;73.07;100505.19;2571024;55;20132;-71
2021/04/04 08:16:43;;;;;;;3.67;1.05;;;;;;;3.32;74.13;100505.56;2571255;55;20517;-71
2021/04/04 08:19:12;;;;;;;9.27;1.42;;;;;;;3.17;76.01;100507.16;2571774;55;20109;-71
2021/04/04 08:21:47;;;;;;;5.28;1.20;;;;;;;3.13;77.40;100499.47;2571250;55;20114;-72
2021/04/04 08:24:25;;;;;;;2.50;1.40;;;;;;;3.16;77.66;100489.66;2571640;55;20551;-71
2021/04/04 08:27:01;;;;;;;5.82;2.25;;;;;;;3.13;79.42;100495.06;2571361;55;20118;-71
2021/04/04 08:29:41;;;;;;;2.50;1.33;;;;;;;3.15;80.25;100485.31;2570816;55;20131;-71
2021/04/04 08:32:12;;;;;;;3.85;2.22;;;;;;;3.22;79.90;100487.66;2570803;55;20110;-72
2021/04/04 08:34:48;;;;;;;2.83;1.00;;;;;;;3.22;81.49;100488.50;2571270;55;20129;-71
2021/04/04 08:37:21;;;;;;;13.18;4.03;;;;;;;3.19;80.88;100478.09;2571281;55;20098;-71
2021/04/04 08:39:56;;;;;;;6.28;2.15;;;;;;;3.20;81.99;100467.47;2571699;55;20128;-71
2021/04/04 08:42:26;;;;;;;3.85;2.12;;;;;;;3.25;83.34;100464.59;2570100;55;20242;-71
2021/04/04 08:45:05;;;;;;;4.43;2.00;;;;;;;3.36;82.98;100456.19;2571283;55;20136;-71
2021/04/04 08:47:36;;;;;;;10.63;4.22;;;;;;;3.43;81.73;100460.22;2572347;55;20131;-71
2021/04/04 08:50:09;;;;;;;3.92;1.80;;;;;;;3.51;81.63;100461.63;2572246;55;20522;-71
2021/04/04 08:52:41;;;;;;;5.03;1.95;;;;;;;3.42;82.23;100455.03;2572805;55;20114;-71
2021/04/04 08:55:15;;;;;;;3.12;1.35;;;;;;;3.37;82.77;100464.97;2573011;55;20113;-71
2021/04/04 08:57:47;;;;;;;2.50;1.30;;;;;;;3.35;83.88;100454.47;2573016;55;20113;-71
2021/04/04 09:00:20;;;;;;;5.72;1.60;;;;;;;3.32;83.47;100441.44;2572604;55;20119;-71
2021/04/04 09:02:55;;;;;;;4.80;1.40;;;;;;;3.33;83.44;100444.00;2573636;55;20122;-71
2021/04/04 09:05:26;;;;;;;4.78;1.73;;;;;;;3.39;84.33;100442.00;2571764;55;20136;-71
2021/04/04 09:07:59;;;;;;;4.15;2.03;;;;;;;3.51;82.55;100432.59;2572644;55;20121;-71
2021/04/04 09:10:32;;;;;;;6.50;2.83;;;;;;;3.48;82.13;100436.25;2573025;55;20154;-71
2021/04/04 09:13:01;;;;;;;2.80;1.35;;;;;;;3.47;83.01;100416.09;2572154;55;20714;-71
2021/04/04 09:15:32;;;;;;;2.83;1.35;;;;;;;3.53;81.63;100421.03;2572982;55;20148;-71
2021/04/04 09:18:02;;;;;;;3.62;1.62;;;;;;;3.53;81.45;100420.22;2573154;55;20139;-71
2021/04/04 09:20:33;;;;;;;4.05;1.40;;;;;;;3.46;80.71;100420.50;2571902;55;20212;-71
2021/04/04 09:23:03;;;;;;;4.07;1.50;;;;;;;3.45;81.67;100418.81;2572524;55;20144;-71
2021/04/04 09:25:34;;;;;;;3.67;1.70;;;;;;;3.45;81.81;100404.75;2572883;55;20132;-71
2021/04/04 09:28:07;;;;;;;4.45;2.17;;;;;;;3.42;80.40;100400.50;2572311;55;20268;-71
2021/04/04 09:30:46;;;;;;;2.45;1.52;;;;;;;3.37;81.42;100407.78;2572418;55;20118;-71
2021/04/04 09:33:18;;;;;;;3.87;2.05;;;;;;;3.33;82.64;100401.78;2572547;55;20117;-71
2021/04/04 09:35:55;;;;;;;4.55;1.80;;;;;;;3.45;82.15;100399.47;2573028;55;20127;-71
2021/04/04 09:38:31;;;;;;;3.47;1.80;;;;;;;3.45;82.14;100387.16;2572859;55;20102;-71
2021/04/04 09:41:02;;;;;;;3.42;1.30;;;;;;;3.45;81.78;100389.78;2570216;55;20111;-71
2021/04/04 09:43:41;;;;;;;5.47;1.95;;;;;;;3.46;82.67;100385.38;2571477;55;20125;-71
2021/04/04 09:46:10;;;;;;;5.03;1.70;;;;;;;3.47;80.88;100380.00;2570946;55;20128;-71
2021/04/04 09:48:40;;;;;;;5.45;1.25;;;;;;;3.47;81.76;100381.81;2571822;55;20120;-71
2021/04/04 09:51:12;;;;;;;2.70;1.48;;;;;;;3.52;81.14;100377.13;2569865;55;20125;-71
2021/04/04 09:53:42;;;;;;;5.20;1.50;;;;;;;3.47;81.38;100365.97;2567454;55;20110;-69
2021/04/04 09:56:11;;;;;;;2.67;1.35;;;;;;;3.48;81.49;100362.41;2567599;55;20161;-70
2021/04/04 09:58:41;;;;;;;3.22;1.30;;;;;;;3.53;80.59;100365.66;2567359;55;20125;-69
2021/04/04 10:01:21;;;;;;;4.80;1.23;;;;;;;3.52;82.18;100363.09;2569507;55;20140;-69
2021/04/04 10:03:56;;;;;;;4.37;1.52;;;;;;;3.57;81.74;100366.34;2570263;55;20132;-69
2021/04/04 10:06:25;;;;;;;2.42;1.40;;;;;;;3.52;81.59;100358.66;2569895;55;20118;-67
2021/04/04 10:08:55;;;;;;;3.25;1.20;;;;;;;3.51;81.26;100350.81;2570266;55;20524;-69
2021/04/04 10:11:23;;;;;;;3.83;1.17;;;;;;;3.50;82.38;100349.13;2570093;55;20520;-69
2021/04/04 10:13:51;;;;;;;3.28;1.27;;;;;;;3.46;81.47;100341.38;2570093;55;20129;-69
2021/04/04 10:16:24;;;;;;;3.22;1.58;;;;;;;3.51;81.61;100348.19;2569137;55;20140;-68
2021/04/04 10:19:03;;;;;;;9.95;1.48;;;;;;;3.57;82.21;100339.97;2568475;55;20132;-69
2021/04/04 10:21:35;;;;;;;6.47;1.83;;;;;;;3.55;82.35;100336.56;2567809;55;20122;-69
2021/04/04 10:24:25;;;;;;;2.60;1.30;;;;;;;3.60;82.82;100345.06;2567180;55;20130;-69
2021/04/04 10:27:25;;;;;;;2.62;0.90;;;;;;;3.61;83.15;100336.25;2567124;55;20143;-69
2021/04/04 10:30:12;;;;;;;3.25;1.40;;;;;;;3.54;84.16;100330.41;2571011;55;20133;-69
2021/04/04 10:32:43;;;;;;;2.83;1.67;;;;;;;3.48;84.51;100328.13;2566838;55;20159;-69
2021/04/04 10:35:14;;;;;;;4.57;1.50;;;;;;;3.41;84.64;100330.22;2566106;55;20122;-70
2021/04/04 10:37:42;;;;;;;7.00;1.40;;;;;;;3.50;84.71;100333.28;2566333;55;20743;-69
2021/04/04 10:40:12;;;;;;;4.07;1.60;;;;;;;3.42;85.58;100331.06;2567046;55;20177;-69
2021/04/04 10:42:55;;;;;;;5.65;1.65;;;;;;;3.44;85.17;100329.19;2565839;55;20122;-69
2021/04/04 10:45:23;;;;;;;3.10;1.83;;;;;;;3.41;86.38;100313.53;2567178;55;20168;-69
2021/04/04 10:48:06;;;;;;;2.80;1.55;;;;;;;3.50;86.52;100315.69;2567485;55;20117;-69
2021/04/04 10:50:35;;;;;;;3.90;1.98;;;;;;;3.42;86.09;100305.53;2566156;55;20167;-70
2021/04/04 10:53:03;;;;;;;3.62;1.40;;;;;;;3.36;87.04;100312.91;2566986;55;20148;-69
2021/04/04 10:55:31;;;;;;;3.60;1.80;;;;;;;3.31;88.47;100298.19;2567385;55;20121;-69
2021/04/04 10:58:00;;;;;;;5.78;2.10;;;;;;;3.25;88.61;100292.38;2566778;55;20130;-69
2021/04/04 11:00:28;;;;;;;5.37;2.22;;;;;;;3.31;87.33;100292.06;2567007;55;20106;-69
2021/04/04 11:02:58;;;;;;;4.85;2.08;;;;;;;3.34;90.18;100286.62;2567647;55;20258;-70
2021/04/04 11:05:27;;;;;;;3.50;1.87;;;;;;;3.36;88.97;100279.47;2566878;55;20118;-69
2021/04/04 11:07:57;;;;;;;4.32;1.30;;;;;;;3.32;88.54;100281.41;2566814;55;20643;-70
2021/04/04 11:10:24;;;;;;;2.62;1.60;;;;;;;3.30;89.80;100291.19;2565796;55;20132;-69
2021/04/04 11:12:54;;;;;;;5.03;1.37;;;;;;;3.29;88.60;100278.09;2567383;55;20187;-69
2021/04/04 11:15:25;;;;;;;5.18;1.58;;;;;;;3.28;89.24;100292.19;2566304;55;20140;-69
2021/04/04 11:17:53;;;;;;;2.37;1.37;;;;;;;3.18;89.33;100279.50;2566499;55;20118;-69
2021/04/04 11:20:23;;;;;;;3.85;1.90;;;;;;;3.17;88.59;100275.16;2566087;55;20191;-70
2021/04/04 11:22:51;;;;;;;3.85;1.42;;;;;;;3.15;89.23;100269.12;2567639;55;20133;-70
2021/04/04 11:25:19;;;;;;;3.40;1.50;;;;;;;3.16;89.40;100268.19;2566563;55;20183;-70
2021/04/04 11:27:50;;;;;;;1.80;1.23;;;;;;;3.20;89.14;100268.88;2567420;55;20624;-69
2021/04/04 11:30:38;;;;;;;3.08;1.52;;;;;;;3.28;89.38;100256.16;2566784;55;20126;-70
2021/04/04 11:33:26;;;;;;;3.65;1.23;;;;;;;3.30;88.79;100256.06;2566631;55;20125;-70
2021/04/04 11:36:13;;;;;;;4.03;1.48;;;;;;;3.29;89.37;100254.34;2566668;55;20567;-69
2021/04/04 11:38:56;;;;;;;5.70;1.48;;;;;;;3.24;88.62;100248.47;2566364;55;20155;-69
2021/04/04 11:41:28;;;;;;;3.58;1.10;;;;;;;3.25;87.96;100242.28;2565683;55;20118;-69
2021/04/04 11:44:22;;;;;;;5.62;1.05;;;;;;;3.27;88.23;100243.91;2567416;55;20118;-69
2021/04/04 11:46:55;;;;;;;2.25;1.35;;;;;;;3.17;87.50;100238.25;2567390;55;20228;-76
2021/04/04 11:49:49;;;;;;;2.25;1.02;;;;;;;3.23;88.21;100225.69;2567225;55;20125;-75
2021/04/04 11:52:41;;;;;;;2.60;1.55;;;;;;;3.22;87.92;100229.25;2566744;55;20124;-75
2021/04/04 11:55:11;;;;;;;6.93;2.55;;;;;;;3.22;87.84;100224.00;2564517;55;20134;-75
2021/04/04 11:57:42;;;;;;;5.15;2.10;;;;;;;3.24;87.83;100228.22;2567361;55;20130;-75
2021/04/04 12:00:14;;;;;;;4.28;1.55;;;;;;;3.27;87.42;100216.66;2566916;55;20641;-76